createdAt,value
2023-03-23T15:57:56.043Z,22.00
2023-03-23T16:00:27.191Z,23.50
2023-03-23T16:03:02.026Z,22.00
2023-03-23T16:05:30.239Z,29.00
2023-03-23T16:07:58.725Z,22.00
2023-03-23T16:10:28.582Z,25.00
2023-03-23T16:12:57.117Z,24.00
2023-03-23T16:15:25.035Z,31.00
2023-03-23T16:17:52.933Z,22.00
2023-03-23T16:20:23.443Z,30.00
2023-03-23T16:22:52.455Z,20.00
2023-03-23T16:25:20.608Z,28.00
2023-03-23T16:27:52.511Z,29.50
2023-03-23T16:30:22.692Z,27.50
2023-03-23T16:32:51.531Z,25.50
2023-03-23T16:35:21.101Z,23.00
2023-03-23T16:37:52.090Z,28.00
2023-03-23T16:40:37.929Z,23.00
2023-03-23T16:43:08.898Z,17.00
2023-03-23T16:45:41.597Z,13.50
2023-03-23T16:48:13.842Z,13.00
2023-03-23T16:50:43.650Z,15.50
2023-03-23T16:53:12.230Z,14.00
2023-03-23T16:55:40.853Z,18.00
2023-03-23T16:58:17.054Z,19.50
2023-03-23T17:00:49.034Z,21.00
2023-03-23T17:03:19.213Z,21.50
2023-03-23T17:05:51.756Z,25.50
2023-03-23T17:08:20.760Z,27.00
2023-03-23T17:10:49.289Z,30.00
2023-03-23T17:13:17.763Z,26.50
2023-03-23T17:15:47.386Z,35.00
2023-03-23T17:18:16.542Z,35.00
2023-03-23T17:20:44.652Z,33.00
2023-03-23T17:23:12.886Z,30.00
2023-03-23T17:25:41.199Z,26.00
2023-03-23T17:28:09.244Z,29.00
2023-03-23T17:30:41.275Z,27.50
2023-03-23T17:33:10.486Z,30.00
2023-03-23T17:35:38.488Z,38.00
2023-03-23T17:38:06.448Z,35.00
2023-03-23T17:40:34.413Z,30.00
2023-03-23T17:43:02.548Z,26.00
2023-03-23T17:45:30.564Z,20.00
2023-03-23T17:47:58.648Z,20.00
2023-03-23T17:50:27.752Z,21.00
2023-03-23T17:52:57.105Z,21.00
2023-03-23T17:55:25.621Z,24.00
2023-03-23T17:57:53.697Z,26.00
2023-03-23T18:00:22.393Z,28.00
2023-03-23T18:02:50.524Z,29.00
2023-03-23T18:05:18.924Z,34.50
2023-03-23T18:07:47.019Z,37.00
2023-03-23T18:10:16.240Z,30.50
2023-03-23T18:12:44.169Z,29.50
2023-03-23T18:15:18.111Z,25.00
2023-03-23T18:17:48.485Z,29.00
2023-03-23T18:20:17.030Z,29.33
2023-03-23T18:22:45.368Z,26.50
2023-03-23T18:25:13.549Z,31.00
2023-03-23T18:27:42.402Z,37.00
2023-03-23T18:30:11.147Z,31.50
2023-03-23T18:32:41.018Z,30.00
2023-03-23T18:35:11.136Z,29.50
2023-03-23T18:37:39.523Z,29.00
2023-03-23T18:40:12.214Z,27.50
2023-03-23T18:42:45.103Z,32.50
2023-03-23T18:45:13.779Z,25.00
2023-03-23T18:50:11.194Z,26.00
2023-03-23T18:52:39.441Z,23.00
2023-03-23T18:55:07.834Z,26.00
2023-03-23T18:57:35.898Z,22.50
2023-03-23T19:00:04.914Z,23.00
2023-03-23T19:02:33.040Z,22.00
2023-03-23T19:05:01.828Z,25.50
2023-03-23T19:07:31.438Z,21.00
2023-03-23T19:09:59.685Z,22.00
2023-03-23T19:12:27.860Z,24.00
2023-03-23T19:14:56.116Z,26.00
2023-03-23T19:17:25.298Z,29.00
2023-03-23T19:19:53.568Z,22.33
2023-03-23T19:22:21.596Z,24.50
2023-03-23T19:24:49.515Z,25.00
2023-03-23T19:27:19.373Z,26.00
2023-03-23T19:29:47.594Z,20.00
2023-03-23T19:32:15.914Z,22.00
2023-03-23T19:34:50.521Z,19.00
2023-03-23T19:37:20.182Z,18.50
2023-03-23T19:39:48.397Z,28.00
2023-03-23T19:42:18.555Z,22.33
2023-03-23T19:44:48.985Z,26.00
2023-03-23T19:47:17.253Z,25.00
2023-03-23T19:49:45.792Z,20.50
2023-03-23T19:52:15.581Z,27.50
2023-03-23T19:54:46.087Z,21.00
2023-03-23T19:57:14.711Z,27.00
2023-03-23T19:59:44.357Z,27.00
2023-03-23T20:02:13.763Z,28.00
2023-03-23T20:04:43.639Z,28.50
2023-03-23T20:07:13.368Z,27.00
2023-03-23T20:09:42.698Z,22.50
2023-03-23T20:12:11.113Z,26.00
2023-03-23T20:14:45.077Z,29.00
2023-03-23T20:17:14.731Z,23.00
2023-03-23T20:19:44.539Z,34.50
2023-03-23T20:22:14.507Z,32.00
2023-03-23T20:24:43.398Z,33.00
2023-03-23T20:27:11.650Z,29.33
2023-03-23T20:29:39.875Z,29.00
2023-03-23T20:32:08.829Z,31.00
2023-03-23T20:34:36.926Z,40.00
2023-03-23T20:37:05.108Z,39.50
2023-03-23T20:39:33.795Z,34.00
2023-03-23T20:42:03.400Z,40.00
2023-03-23T20:44:35.184Z,39.00
2023-03-23T20:47:04.615Z,42.00
2023-03-23T20:49:35.304Z,39.00
2023-03-23T20:52:06.766Z,42.00
2023-03-23T20:54:35.777Z,35.00
2023-03-23T20:57:04.289Z,36.67
2023-03-23T20:59:32.319Z,36.00
2023-03-23T21:02:00.225Z,47.00
2023-03-23T21:04:28.367Z,46.00
2023-03-23T21:06:56.527Z,44.00
2023-03-23T21:09:25.612Z,42.00
2023-03-23T21:11:54.287Z,38.00
2023-03-23T21:14:22.303Z,38.00
2023-03-23T21:16:50.636Z,38.00
2023-03-23T21:19:19.674Z,32.00
2023-03-23T21:21:56.096Z,38.00
2023-03-23T21:24:28.259Z,30.00
2023-03-23T21:26:59.171Z,28.50
2023-03-23T21:29:27.837Z,26.00
2023-03-23T21:34:28.289Z,28.00
2023-03-23T21:36:56.451Z,14.00
2023-03-23T21:39:24.869Z,27.50
2023-03-23T21:41:52.892Z,21.50
2023-03-23T21:44:20.960Z,27.00
2023-03-23T21:46:48.919Z,25.50
2023-03-23T21:49:16.878Z,25.00
2023-03-23T21:51:44.898Z,26.50
2023-03-23T21:54:12.817Z,23.00
2023-03-23T21:56:41.257Z,26.00
2023-03-23T21:59:09.318Z,24.00
2023-03-23T22:01:37.490Z,20.67
2023-03-23T22:04:06.497Z,24.00
2023-03-23T22:06:35.013Z,17.67
2023-03-23T22:09:08.948Z,23.00
2023-03-23T22:11:38.274Z,22.00
2023-03-23T22:14:07.290Z,19.00
2023-03-23T22:16:35.945Z,20.00
2023-03-23T22:19:04.554Z,20.00
2023-03-23T22:21:32.705Z,19.67
2023-03-23T22:24:02.099Z,19.00
2023-03-23T22:26:30.539Z,17.00
2023-03-23T22:29:01.064Z,21.50
2023-03-23T22:31:33.927Z,20.50
2023-03-23T22:34:02.345Z,17.50
2023-03-23T22:36:31.542Z,18.50
2023-03-23T22:39:01.062Z,20.00
2023-03-23T22:41:33.888Z,19.00
2023-03-23T22:44:02.589Z,22.00
2023-03-23T22:46:31.191Z,18.50
2023-03-23T22:48:59.190Z,19.50
2023-03-23T22:51:27.770Z,19.50
2023-03-23T22:53:57.224Z,17.50
2023-03-23T22:56:25.644Z,19.50
2023-03-23T22:58:54.753Z,20.67
2023-03-23T23:01:23.988Z,16.50
2023-03-23T23:03:52.672Z,20.50
2023-03-23T23:06:21.533Z,19.50
2023-03-23T23:08:49.705Z,17.00
2023-03-23T23:11:19.638Z,14.50
2023-03-23T23:13:47.909Z,16.00
2023-03-23T23:16:17.674Z,11.00
2023-03-23T23:18:47.853Z,10.50
2023-03-23T23:21:19.143Z,13.50
2023-03-23T23:23:47.901Z,13.00
2023-03-23T23:26:16.764Z,11.00
2023-03-23T23:28:46.788Z,13.00
2023-03-23T23:31:31.502Z,11.50
2023-03-23T23:34:01.547Z,13.33
2023-03-23T23:36:32.040Z,11.00
2023-03-23T23:39:01.647Z,11.00
2023-03-23T23:41:30.954Z,14.50
2023-03-23T23:43:59.818Z,13.50
2023-03-23T23:46:31.033Z,13.00
2023-03-23T23:49:01.215Z,12.00
2023-03-23T23:51:30.221Z,13.00
2023-03-23T23:54:01.894Z,10.33
2023-03-23T23:56:30.489Z,11.00
2023-03-23T23:58:58.860Z,14.50
